sensor_id;sensor_type;location;lat;lon;timestamp;pressure;altitude;pressure_sealevel;temperature;humidity
37238;BME280;23129;49.662;8.448;2023-04-27T00:01:59;100905.66;;;8.02;nan
37238;BME280;23129;49.662;8.448;2023-04-27T00:04:28;100909.16;;;7.98;nan
37238;BME280;23129;49.662;8.448;2023-04-27T00:06:57;100904.88;;;7.94;nan
37238;BME280;23129;49.662;8.448;2023-04-27T00:09:25;100909.22;;;7.92;nan
37238;BME280;23129;49.662;8.448;2023-04-27T00:11:55;100906.63;;;7.92;nan
37238;BME280;23129;49.662;8.448;2023-04-27T00:14:24;100904.94;;;7.86;nan
37238;BME280;23129;49.662;8.448;2023-04-27T00:16:55;100905.00;;;7.80;nan
37238;BME280;23129;49.662;8.448;2023-04-27T00:19:23;100912.00;;;7.76;nan
37238;BME280;23129;49.662;8.448;2023-04-27T00:21:52;100907.69;;;7.72;nan
37238;BME280;23129;49.662;8.448;2023-04-27T00:24:21;100906.84;;;7.67;nan
37238;BME280;23129;49.662;8.448;2023-04-27T00:26:49;100911.22;;;7.62;nan
37238;BME280;23129;49.662;8.448;2023-04-27T00:29:19;100906.00;;;7.62;nan
37238;BME280;23129;49.662;8.448;2023-04-27T00:31:48;100907.81;;;7.57;nan
37238;BME280;23129;49.662;8.448;2023-04-27T00:34:17;100893.94;;;7.52;nan
37238;BME280;23129;49.662;8.448;2023-04-27T00:36:47;100899.16;;;7.49;nan
37238;BME280;23129;49.662;8.448;2023-04-27T00:39:15;100900.06;;;7.45;nan
37238;BME280;23129;49.662;8.448;2023-04-27T00:41:44;100899.22;;;7.43;nan
37238;BME280;23129;49.662;8.448;2023-04-27T00:44:13;100907.06;;;7.40;nan
37238;BME280;23129;49.662;8.448;2023-04-27T00:46:51;100895.78;;;7.38;nan
37238;BME280;23129;49.662;8.448;2023-04-27T00:49:20;100898.44;;;7.33;nan
37238;BME280;23129;49.662;8.448;2023-04-27T00:51:48;100902.75;;;7.32;nan
37238;BME280;23129;49.662;8.448;2023-04-27T00:54:19;100894.09;;;7.30;nan
37238;BME280;23129;49.662;8.448;2023-04-27T00:56:48;100896.72;;;7.26;nan
37238;BME280;23129;49.662;8.448;2023-04-27T00:59:18;100899.38;;;7.21;nan
37238;BME280;23129;49.662;8.448;2023-04-27T01:01:47;100898.50;;;7.18;nan
37238;BME280;23129;49.662;8.448;2023-04-27T01:04:17;100895.06;;;7.16;nan
37238;BME280;23129;49.662;8.448;2023-04-27T01:06:46;100898.53;;;7.12;nan
37238;BME280;23129;49.662;8.448;2023-04-27T01:09:15;100901.19;;;7.10;nan
37238;BME280;23129;49.662;8.448;2023-04-27T01:11:49;100904.69;;;7.06;nan
37238;BME280;23129;49.662;8.448;2023-04-27T01:14:18;100912.50;;;7.03;nan
37238;BME280;23129;49.662;8.448;2023-04-27T01:16:46;100901.25;;;7.01;nan
37238;BME280;23129;49.662;8.448;2023-04-27T01:19:16;100902.09;;;7.01;nan
37238;BME280;23129;49.662;8.448;2023-04-27T01:21:45;100905.59;;;6.99;nan
37238;BME280;23129;49.662;8.448;2023-04-27T01:24:15;100915.13;;;7.00;nan
37238;BME280;23129;49.662;8.448;2023-04-27T01:26:44;100914.31;;;6.95;nan
37238;BME280;23129;49.662;8.448;2023-04-27T01:29:12;100917.78;;;6.91;nan
37238;BME280;23129;49.662;8.448;2023-04-27T01:31:41;100916.09;;;6.88;nan
37238;BME280;23129;49.662;8.448;2023-04-27T01:34:10;100909.16;;;6.85;nan
37238;BME280;23129;49.662;8.448;2023-04-27T01:36:38;100914.38;;;6.82;nan
37238;BME280;23129;49.662;8.448;2023-04-27T01:39:07;100910.03;;;6.81;nan
37238;BME280;23129;49.662;8.448;2023-04-27T01:41:37;100912.66;;;6.77;nan
37238;BME280;23129;49.662;8.448;2023-04-27T01:44:06;100908.31;;;6.73;nan
37238;BME280;23129;49.662;8.448;2023-04-27T01:46:35;100910.94;;;6.70;nan
37238;BME280;23129;49.662;8.448;2023-04-27T01:49:04;100913.59;;;6.65;nan
37238;BME280;23129;49.662;8.448;2023-04-27T01:51:33;100915.34;;;6.60;nan
37238;BME280;23129;49.662;8.448;2023-04-27T01:54:02;100927.50;;;6.58;nan
37238;BME280;23129;49.662;8.448;2023-04-27T01:56:30;100917.97;;;6.54;nan
37238;BME280;23129;49.662;8.448;2023-04-27T01:59:00;100918.84;;;6.53;nan
37238;BME280;23129;49.662;8.448;2023-04-27T02:01:29;100919.72;;;6.49;nan
37238;BME280;23129;49.662;8.448;2023-04-27T02:03:58;100922.31;;;6.46;nan
37238;BME280;23129;49.662;8.448;2023-04-27T02:06:28;100922.34;;;6.43;nan
37238;BME280;23129;49.662;8.448;2023-04-27T02:08:57;100918.91;;;6.37;nan
37238;BME280;23129;49.662;8.448;2023-04-27T02:11:26;100916.31;;;6.34;nan
37238;BME280;23129;49.662;8.448;2023-04-27T02:13:55;100924.13;;;6.31;nan
37238;BME280;23129;49.662;8.448;2023-04-27T02:16:31;100919.78;;;6.29;nan
37238;BME280;23129;49.662;8.448;2023-04-27T02:19:00;100929.34;;;6.22;nan
37238;BME280;23129;49.662;8.448;2023-04-27T02:21:30;100927.63;;;6.18;nan
37238;BME280;23129;49.662;8.448;2023-04-27T02:23:59;100932.84;;;6.15;nan
37238;BME280;23129;49.662;8.448;2023-04-27T02:26:28;100938.06;;;6.12;nan
37238;BME280;23129;49.662;8.448;2023-04-27T02:28:57;100941.53;;;6.11;nan
37238;BME280;23129;49.662;8.448;2023-04-27T02:31:26;100943.25;;;6.09;nan
37238;BME280;23129;49.662;8.448;2023-04-27T02:33:56;100938.06;;;6.09;nan
37238;BME280;23129;49.662;8.448;2023-04-27T02:36:25;100938.06;;;6.07;nan
37238;BME280;23129;49.662;8.448;2023-04-27T02:38:55;100943.25;;;6.09;nan
37238;BME280;23129;49.662;8.448;2023-04-27T02:41:24;100943.25;;;6.09;nan
37238;BME280;23129;49.662;8.448;2023-04-27T02:43:54;100946.75;;;6.11;nan
37238;BME280;23129;49.662;8.448;2023-04-27T02:46:24;100944.97;;;6.13;nan
37238;BME280;23129;49.662;8.448;2023-04-27T02:48:54;100938.06;;;6.12;nan
37238;BME280;23129;49.662;8.448;2023-04-27T02:51:24;100946.75;;;6.14;nan
37238;BME280;23129;49.662;8.448;2023-04-27T02:53:53;100943.25;;;6.15;nan
37238;BME280;23129;49.662;8.448;2023-04-27T02:56:22;100940.66;;;6.20;nan
37238;BME280;23129;49.662;8.448;2023-04-27T02:58:51;100940.66;;;6.23;nan
37238;BME280;23129;49.662;8.448;2023-04-27T03:01:19;100945.84;;;6.27;nan
37238;BME280;23129;49.662;8.448;2023-04-27T03:03:49;100942.34;;;6.33;nan
37238;BME280;23129;49.662;8.448;2023-04-27T03:06:18;100950.16;;;6.37;nan
37238;BME280;23129;49.662;8.448;2023-04-27T03:08:48;100942.31;;;6.42;nan
37238;BME280;23129;49.662;8.448;2023-04-27T03:11:16;100941.44;;;6.48;nan
37238;BME280;23129;49.662;8.448;2023-04-27T03:13:45;100937.09;;;6.51;nan
37238;BME280;23129;49.662;8.448;2023-04-27T03:16:13;100937.94;;;6.55;nan
37238;BME280;23129;49.662;8.448;2023-04-27T03:18:42;100934.47;;;6.59;nan
37238;BME280;23129;49.662;8.448;2023-04-27T03:21:11;100932.69;;;6.64;nan
37238;BME280;23129;49.662;8.448;2023-04-27T03:23:40;100930.94;;;6.66;nan
37238;BME280;23129;49.662;8.448;2023-04-27T03:26:12;100929.19;;;6.71;nan
37238;BME280;23129;49.662;8.448;2023-04-27T03:28:41;100930.91;;;6.72;nan
37238;BME280;23129;49.662;8.448;2023-04-27T03:31:11;100929.19;;;6.74;nan
37238;BME280;23129;49.662;8.448;2023-04-27T03:33:41;100930.91;;;6.75;nan
37238;BME280;23129;49.662;8.448;2023-04-27T03:36:09;100928.28;;;6.78;nan
37238;BME280;23129;49.662;8.448;2023-04-27T03:38:41;100927.44;;;6.79;nan
37238;BME280;23129;49.662;8.448;2023-04-27T03:41:11;100927.41;;;6.82;nan
37238;BME280;23129;49.662;8.448;2023-04-27T03:43:40;100926.53;;;6.83;nan
37238;BME280;23129;49.662;8.448;2023-04-27T03:46:09;100923.94;;;6.85;nan
37238;BME280;23129;49.662;8.448;2023-04-27T03:48:38;100929.16;;;6.83;nan
37238;BME280;23129;49.662;8.448;2023-04-27T03:51:06;100922.19;;;6.84;nan
37238;BME280;23129;49.662;8.448;2023-04-27T03:53:35;100922.19;;;6.82;nan
37238;BME280;23129;49.662;8.448;2023-04-27T03:56:06;100930.03;;;6.79;nan
37238;BME280;23129;49.662;8.448;2023-04-27T03:58:35;100930.06;;;6.76;nan
37238;BME280;23129;49.662;8.448;2023-04-27T04:01:30;100927.44;;;6.75;nan
37238;BME280;23129;49.662;8.448;2023-04-27T04:03:59;100934.41;;;6.74;nan
37238;BME280;23129;49.662;8.448;2023-04-27T04:06:28;100930.06;;;6.73;nan
37238;BME280;23129;49.662;8.448;2023-04-27T04:08:57;100944.84;;;6.71;nan
37238;BME280;23129;49.662;8.448;2023-04-27T04:11:26;100934.41;;;6.71;nan
37238;BME280;23129;49.662;8.448;2023-04-27T04:13:58;100937.88;;;6.73;nan
37238;BME280;23129;49.662;8.448;2023-04-27T04:16:27;100937.88;;;6.73;nan
37238;BME280;23129;49.662;8.448;2023-04-27T04:18:56;100932.66;;;6.75;nan
37238;BME280;23129;49.662;8.448;2023-04-27T04:21:25;100932.66;;;6.76;nan
37238;BME280;23129;49.662;8.448;2023-04-27T04:23:53;100936.09;;;6.78;nan
37238;BME280;23129;49.662;8.448;2023-04-27T04:26:22;100937.84;;;6.82;nan
37238;BME280;23129;49.662;8.448;2023-04-27T04:28:51;100933.47;;;6.86;nan
37238;BME280;23129;49.662;8.448;2023-04-27T04:31:21;100926.47;;;6.93;nan
37238;BME280;23129;49.662;8.448;2023-04-27T04:33:50;100928.19;;;7.00;nan
37238;BME280;23129;49.662;8.448;2023-04-27T04:36:19;100928.16;;;7.04;nan
37238;BME280;23129;49.662;8.448;2023-04-27T04:38:52;100933.34;;;7.12;nan
37238;BME280;23129;49.662;8.448;2023-04-27T04:41:21;100934.19;;;7.14;nan
37238;BME280;23129;49.662;8.448;2023-04-27T04:43:50;100928.94;;;7.17;nan
37238;BME280;23129;49.662;8.448;2023-04-27T04:46:18;100934.16;;;7.20;nan
37238;BME280;23129;49.662;8.448;2023-04-27T04:48:51;100932.38;;;7.28;nan
37238;BME280;23129;49.662;8.448;2023-04-27T04:51:20;100934.06;;;7.32;nan
37238;BME280;23129;49.662;8.448;2023-04-27T04:53:49;100934.94;;;7.36;nan
37238;BME280;23129;49.662;8.448;2023-04-27T04:56:18;100940.13;;;7.41;nan
37238;BME280;23129;49.662;8.448;2023-04-27T04:58:47;100937.47;;;7.44;nan
37238;BME280;23129;49.662;8.448;2023-04-27T05:01:16;100937.47;;;7.47;nan
37238;BME280;23129;49.662;8.448;2023-04-27T05:03:45;100936.56;;;7.51;nan
37238;BME280;23129;49.662;8.448;2023-04-27T05:06:15;100945.22;;;7.58;nan
37238;BME280;23129;49.662;8.448;2023-04-27T05:08:44;100945.16;;;7.62;nan
37238;BME280;23129;49.662;8.448;2023-04-27T05:11:13;100946.00;;;7.67;nan
37238;BME280;23129;49.662;8.448;2023-04-27T05:13:41;100949.47;;;7.69;nan
37238;BME280;23129;49.662;8.448;2023-04-27T05:16:10;100957.25;;;7.74;nan
37238;BME280;23129;49.662;8.448;2023-04-27T05:18:39;100962.47;;;7.78;nan
37238;BME280;23129;49.662;8.448;2023-04-27T05:21:14;100951.09;;;7.84;nan
37238;BME280;23129;49.662;8.448;2023-04-27T05:23:43;100956.28;;;7.86;nan
37238;BME280;23129;49.662;8.448;2023-04-27T05:26:12;100959.75;;;7.91;nan
37238;BME280;23129;49.662;8.448;2023-04-27T05:28:41;100964.94;;;7.92;nan
37238;BME280;23129;49.662;8.448;2023-04-27T05:31:10;100968.41;;;7.94;nan
37238;BME280;23129;49.662;8.448;2023-04-27T05:33:38;100975.34;;;8.00;nan
37238;BME280;23129;49.662;8.448;2023-04-27T05:36:08;100977.00;;;8.07;nan
37238;BME280;23129;49.662;8.448;2023-04-27T05:38:38;100973.50;;;8.11;nan
37238;BME280;23129;49.662;8.448;2023-04-27T05:41:07;100969.97;;;8.15;nan
37238;BME280;23129;49.662;8.448;2023-04-27T05:43:36;100973.41;;;8.20;nan
37238;BME280;23129;49.662;8.448;2023-04-27T05:46:05;100976.81;;;8.29;nan
37238;BME280;23129;49.662;8.448;2023-04-27T05:48:34;100966.31;;;8.33;nan
37238;BME280;23129;49.662;8.448;2023-04-27T05:51:04;100973.22;;;8.42;nan
37238;BME280;23129;49.662;8.448;2023-04-27T05:53:33;100978.38;;;8.48;nan
37238;BME280;23129;49.662;8.448;2023-04-27T05:56:03;100982.66;;;8.55;nan
37238;BME280;23129;49.662;8.448;2023-04-27T05:58:33;100983.47;;;8.60;nan
37238;BME280;23129;49.662;8.448;2023-04-27T06:01:02;100990.41;;;8.67;nan
37238;BME280;23129;49.662;8.448;2023-04-27T06:03:31;100988.56;;;8.73;nan
37238;BME280;23129;49.662;8.448;2023-04-27T06:06:00;100990.28;;;8.77;nan
37238;BME280;23129;49.662;8.448;2023-04-27T06:08:29;100992.84;;;8.81;nan
37238;BME280;23129;49.662;8.448;2023-04-27T06:10:58;100987.56;;;8.84;nan
37238;BME280;23129;49.662;8.448;2023-04-27T06:13:29;100989.25;;;8.90;nan
37238;BME280;23129;49.662;8.448;2023-04-27T06:15:58;100997.91;;;8.95;nan
37238;BME280;23129;49.662;8.448;2023-04-27T06:18:27;100992.56;;;9.04;nan
37238;BME280;23129;49.662;8.448;2023-04-27T06:20:58;100993.34;;;9.12;nan
37238;BME280;23129;49.662;8.448;2023-04-27T06:23:28;101001.06;;;9.20;nan
37238;BME280;23129;49.662;8.448;2023-04-27T06:25:57;101000.97;;;9.28;nan
37238;BME280;23129;49.662;8.448;2023-04-27T06:28:27;101006.94;;;9.36;nan
37238;BME280;23129;49.662;8.448;2023-04-27T06:30:56;101001.63;;;9.42;nan
37238;BME280;23129;49.662;8.448;2023-04-27T06:33:25;101006.75;;;9.51;nan
37238;BME280;23129;49.662;8.448;2023-04-27T06:35:53;100999.69;;;9.58;nan
37238;BME280;23129;49.662;8.448;2023-04-27T06:38:22;100998.69;;;9.67;nan
37238;BME280;23129;49.662;8.448;2023-04-27T06:40:51;101008.06;;;9.80;nan
37238;BME280;23129;49.662;8.448;2023-04-27T06:43:20;101007.06;;;9.89;nan
37238;BME280;23129;49.662;8.448;2023-04-27T06:45:49;101011.25;;;10.00;nan
37238;BME280;23129;49.662;8.448;2023-04-27T06:48:18;101012.84;;;10.09;nan
37238;BME280;23129;49.662;8.448;2023-04-27T06:50:47;101020.44;;;10.23;nan
37238;BME280;23129;49.662;8.448;2023-04-27T06:53:16;101021.19;;;10.34;nan
37238;BME280;23129;49.662;8.448;2023-04-27T06:55:45;101021.06;;;10.40;nan
37238;BME280;23129;49.662;8.448;2023-04-27T06:58:15;101020.03;;;10.50;nan
37238;BME280;23129;49.662;8.448;2023-04-27T07:00:43;101017.22;;;10.60;nan
37238;BME280;23129;49.662;8.448;2023-04-27T07:03:14;101014.38;;;10.70;nan
37238;BME280;23129;49.662;8.448;2023-04-27T07:05:43;101017.72;;;10.79;nan
37238;BME280;23129;49.662;8.448;2023-04-27T07:08:11;101017.41;;;10.94;nan
37238;BME280;23129;49.662;8.448;2023-04-27T07:10:40;101022.16;;;11.18;nan
37238;BME280;23129;49.662;8.448;2023-04-27T07:13:09;101014.22;;;11.62;nan
37238;BME280;23129;49.662;8.448;2023-04-27T07:15:39;101013.91;;;12.13;nan
37238;BME280;23129;49.662;8.448;2023-04-27T07:18:07;101006.94;;;12.77;nan
37238;BME280;23129;49.662;8.448;2023-04-27T07:20:40;101012.78;;;13.48;nan
37238;BME280;23129;49.662;8.448;2023-04-27T07:23:08;101000.13;;;14.14;nan
37238;BME280;23129;49.662;8.448;2023-04-27T07:25:37;101004.94;;;14.54;nan
37238;BME280;23129;49.662;8.448;2023-04-27T07:28:06;101010.94;;;14.83;nan
37238;BME280;23129;49.662;8.448;2023-04-27T07:30:36;101003.38;;;14.97;nan
37238;BME280;23129;49.662;8.448;2023-04-27T07:33:05;100999.38;;;15.11;nan
37238;BME280;23129;49.662;8.448;2023-04-27T07:35:34;101015.13;;;15.36;nan
37238;BME280;23129;49.662;8.448;2023-04-27T07:38:04;101006.94;;;15.65;nan
37238;BME280;23129;49.662;8.448;2023-04-27T07:40:34;101003.06;;;15.96;nan
37238;BME280;23129;49.662;8.448;2023-04-27T07:43:03;101002.13;;;16.19;nan
37238;BME280;23129;49.662;8.448;2023-04-27T07:45:31;101002.50;;;16.30;nan
37238;BME280;23129;49.662;8.448;2023-04-27T07:48:00;100992.44;;;16.38;nan
37238;BME280;23129;49.662;8.448;2023-04-27T07:50:29;100986.63;;;16.51;nan
37238;BME280;23129;49.662;8.448;2023-04-27T07:52:58;100986.88;;;16.65;nan
37238;BME280;23129;49.662;8.448;2023-04-27T07:55:28;100977.84;;;16.89;nan
37238;BME280;23129;49.662;8.448;2023-04-27T07:57:57;100979.03;;;17.03;nan
37238;BME280;23129;49.662;8.448;2023-04-27T08:00:26;100969.25;;;17.22;nan
37238;BME280;23129;49.662;8.448;2023-04-27T08:02:55;100950.06;;;17.36;nan
37238;BME280;23129;49.662;8.448;2023-04-27T08:05:24;100967.69;;;17.56;nan
37238;BME280;23129;49.662;8.448;2023-04-27T08:07:53;100963.06;;;17.78;nan
37238;BME280;23129;49.662;8.448;2023-04-27T08:10:23;100967.44;;;18.14;nan
37238;BME280;23129;49.662;8.448;2023-04-27T08:12:52;100961.50;;;18.44;nan
37238;BME280;23129;49.662;8.448;2023-04-27T08:15:21;100965.34;;;18.71;nan
37238;BME280;23129;49.662;8.448;2023-04-27T08:17:50;100968.44;;;18.97;nan
37238;BME280;23129;49.662;8.448;2023-04-27T08:20:19;100969.56;;;19.25;nan
37238;BME280;23129;49.662;8.448;2023-04-27T08:22:50;100966.97;;;19.55;nan
37238;BME280;23129;49.662;8.448;2023-04-27T08:25:19;100970.50;;;19.87;nan
37238;BME280;23129;49.662;8.448;2023-04-27T08:27:48;100952.44;;;20.22;nan
37238;BME280;23129;49.662;8.448;2023-04-27T08:30:18;100952.03;;;20.59;nan
37238;BME280;23129;49.662;8.448;2023-04-27T08:32:47;100947.13;;;20.51;nan
37238;BME280;23129;49.662;8.448;2023-04-27T08:35:16;100949.19;;;20.17;nan
37238;BME280;23129;49.662;8.448;2023-04-27T08:37:45;100954.56;;;20.01;nan
37238;BME280;23129;49.662;8.448;2023-04-27T08:40:13;100962.88;;;19.81;nan
37238;BME280;23129;49.662;8.448;2023-04-27T08:42:55;100956.94;;;19.76;nan
37238;BME280;23129;49.662;8.448;2023-04-27T08:45:26;100954.56;;;20.01;nan
37238;BME280;23129;49.662;8.448;2023-04-27T08:47:55;100959.88;;;20.46;nan
37238;BME280;23129;49.662;8.448;2023-04-27T08:50:24;100951.66;;;20.79;nan
37238;BME280;23129;49.662;8.448;2023-04-27T08:52:52;100958.78;;;20.93;nan
37238;BME280;23129;49.662;8.448;2023-04-27T08:55:21;100953.59;;;21.18;nan
37238;BME280;23129;49.662;8.448;2023-04-27T08:57:54;100957.63;;;21.53;nan
37238;BME280;23129;49.662;8.448;2023-04-27T09:00:25;100963.28;;;21.75;nan
37238;BME280;23129;49.662;8.448;2023-04-27T09:02:54;100960.84;;;21.85;nan
37238;BME280;23129;49.662;8.448;2023-04-27T09:05:23;100955.72;;;22.22;nan
37238;BME280;23129;49.662;8.448;2023-04-27T09:07:56;100958.28;;;22.49;nan
37238;BME280;23129;49.662;8.448;2023-04-27T09:10:26;100962.78;;;22.61;nan
37238;BME280;23129;49.662;8.448;2023-04-27T09:12:57;100960.00;;;22.75;nan
37238;BME280;23129;49.662;8.448;2023-04-27T09:15:28;100958.91;;;22.78;nan
37238;BME280;23129;49.662;8.448;2023-04-27T09:17:58;100951.63;;;23.06;nan
37238;BME280;23129;49.662;8.448;2023-04-27T09:20:26;100954.31;;;23.42;nan
37238;BME280;23129;49.662;8.448;2023-04-27T09:22:55;100950.59;;;23.56;nan
37238;BME280;23129;49.662;8.448;2023-04-27T09:25:26;100943.88;;;23.75;nan
37238;BME280;23129;49.662;8.448;2023-04-27T09:27:55;100945.31;;;23.67;nan
37238;BME280;23129;49.662;8.448;2023-04-27T09:30:25;100946.38;;;23.41;nan
37238;BME280;23129;49.662;8.448;2023-04-27T09:32:57;100933.34;;;23.36;nan
37238;BME280;23129;49.662;8.448;2023-04-27T09:35:29;100944.56;;;23.41;nan
37238;BME280;23129;49.662;8.448;2023-04-27T09:37:58;100942.78;;;23.53;nan
37238;BME280;23129;49.662;8.448;2023-04-27T09:40:28;100944.06;;;23.60;nan
37238;BME280;23129;49.662;8.448;2023-04-27T09:42:59;100938.72;;;23.60;nan
37238;BME280;23129;49.662;8.448;2023-04-27T09:45:28;100936.38;;;23.80;nan
37238;BME280;23129;49.662;8.448;2023-04-27T09:48:00;100935.50;;;24.26;nan
37238;BME280;23129;49.662;8.448;2023-04-27T09:50:29;100934.31;;;24.30;nan
37238;BME280;23129;49.662;8.448;2023-04-27T09:52:58;100934.81;;;24.24;nan
37238;BME280;23129;49.662;8.448;2023-04-27T09:55:31;100923.88;;;24.49;nan
37238;BME280;23129;49.662;8.448;2023-04-27T09:58:19;100923.41;;;24.78;nan
37238;BME280;23129;49.662;8.448;2023-04-27T10:01:01;100920.47;;;24.81;nan
37238;BME280;23129;49.662;8.448;2023-04-27T10:03:47;100925.34;;;24.98;nan
37238;BME280;23129;49.662;8.448;2023-04-27T10:06:59;100925.06;;;25.35;nan
37238;BME280;23129;49.662;8.448;2023-04-27T10:09:35;100919.34;;;25.28;nan
37238;BME280;23129;49.662;8.448;2023-04-27T10:12:17;100916.50;;;25.41;nan
37238;BME280;23129;49.662;8.448;2023-04-27T10:14:51;100918.09;;;25.33;nan
37238;BME280;23129;49.662;8.448;2023-04-27T10:17:24;100917.94;;;25.45;nan
37238;BME280;23129;49.662;8.448;2023-04-27T10:19:59;100908.16;;;25.44;nan
37238;BME280;23129;49.662;8.448;2023-04-27T10:22:38;100910.56;;;25.59;nan
37238;BME280;23129;49.662;8.448;2023-04-27T10:25:16;100915.63;;;25.73;nan
37238;BME280;23129;49.662;8.448;2023-04-27T10:27:50;100914.19;;;25.69;nan
37238;BME280;23129;49.662;8.448;2023-04-27T10:30:21;100912.47;;;25.36;nan
37238;BME280;23129;49.662;8.448;2023-04-27T10:32:52;100912.41;;;25.15;nan
37238;BME280;23129;49.662;8.448;2023-04-27T10:35:32;100911.19;;;25.19;nan
37238;BME280;23129;49.662;8.448;2023-04-27T10:38:08;100913.88;;;25.08;nan
37238;BME280;23129;49.662;8.448;2023-04-27T10:40:38;100911.63;;;25.13;nan
37238;BME280;23129;49.662;8.448;2023-04-27T10:43:10;100912.56;;;25.45;nan
37238;BME280;23129;49.662;8.448;2023-04-27T10:45:39;100905.41;;;25.67;nan
37238;BME280;23129;49.662;8.448;2023-04-27T10:48:11;100905.22;;;25.80;nan
37238;BME280;23129;49.662;8.448;2023-04-27T10:50:42;100901.25;;;25.95;nan
37238;BME280;23129;49.662;8.448;2023-04-27T10:53:13;100899.22;;;26.08;nan
37238;BME280;23129;49.662;8.448;2023-04-27T10:55:42;100896.13;;;26.13;nan
37238;BME280;23129;49.662;8.448;2023-04-27T10:58:11;100899.19;;;26.29;nan
37238;BME280;23129;49.662;8.448;2023-04-27T11:00:40;100892.03;;;26.39;nan
37238;BME280;23129;49.662;8.448;2023-04-27T11:03:13;100890.06;;;26.41;nan
37238;BME280;23129;49.662;8.448;2023-04-27T11:05:46;100895.53;;;26.30;nan
37238;BME280;23129;49.662;8.448;2023-04-27T11:08:17;100889.97;;;26.22;nan
37238;BME280;23129;49.662;8.448;2023-04-27T11:10:48;100886.00;;;26.26;nan
37238;BME280;23129;49.662;8.448;2023-04-27T11:13:19;100886.66;;;26.39;nan
37238;BME280;23129;49.662;8.448;2023-04-27T11:15:49;100880.25;;;26.61;nan
37238;BME280;23129;49.662;8.448;2023-04-27T11:18:20;100877.50;;;26.82;nan
37238;BME280;23129;49.662;8.448;2023-04-27T11:20:52;100877.84;;;26.99;nan
37238;BME280;23129;49.662;8.448;2023-04-27T11:23:25;100878.59;;;27.20;nan
37238;BME280;23129;49.662;8.448;2023-04-27T11:25:55;100877.75;;;27.29;nan
37238;BME280;23129;49.662;8.448;2023-04-27T11:28:24;100876.19;;;27.17;nan
37238;BME280;23129;49.662;8.448;2023-04-27T11:30:56;100874.78;;;26.73;nan
37238;BME280;23129;49.662;8.448;2023-04-27T11:33:25;100874.56;;;26.55;nan
37238;BME280;23129;49.662;8.448;2023-04-27T11:35:55;100877.94;;;26.26;nan
37238;BME280;23129;49.662;8.448;2023-04-27T11:38:25;100878.84;;;26.06;nan
37238;BME280;23129;49.662;8.448;2023-04-27T11:41:02;100875.06;;;25.76;nan
37238;BME280;23129;49.662;8.448;2023-04-27T11:43:32;100869.56;;;25.45;nan
37238;BME280;23129;49.662;8.448;2023-04-27T11:46:02;100865.13;;;25.35;nan
37238;BME280;23129;49.662;8.448;2023-04-27T11:48:34;100867.88;;;25.44;nan
37238;BME280;23129;49.662;8.448;2023-04-27T11:51:06;100848.72;;;25.70;nan
37238;BME280;23129;49.662;8.448;2023-04-27T11:53:36;100853.31;;;25.79;nan
37238;BME280;23129;49.662;8.448;2023-04-27T11:56:08;100855.59;;;26.05;nan
37238;BME280;23129;49.662;8.448;2023-04-27T11:58:38;100856.25;;;26.18;nan
37238;BME280;23129;49.662;8.448;2023-04-27T12:01:07;100839.00;;;26.21;nan
37238;BME280;23129;49.662;8.448;2023-04-27T12:03:36;100842.63;;;26.40;nan
37238;BME280;23129;49.662;8.448;2023-04-27T12:06:06;100845.84;;;26.34;nan
37238;BME280;23129;49.662;8.448;2023-04-27T12:08:54;100836.31;;;26.21;nan
37238;BME280;23129;49.662;8.448;2023-04-27T12:11:24;100831.63;;;26.23;nan
37238;BME280;23129;49.662;8.448;2023-04-27T12:13:54;100825.50;;;26.41;nan
37238;BME280;23129;49.662;8.448;2023-04-27T12:16:23;100820.81;;;26.44;nan
37238;BME280;23129;49.662;8.448;2023-04-27T12:18:52;100821.81;;;26.42;nan
37238;BME280;23129;49.662;8.448;2023-04-27T12:21:22;100823.72;;;26.52;nan
37238;BME280;23129;49.662;8.448;2023-04-27T12:23:51;100815.66;;;26.52;nan
37238;BME280;23129;49.662;8.448;2023-04-27T12:26:20;100817.34;;;26.53;nan
37238;BME280;23129;49.662;8.448;2023-04-27T12:28:48;100819.78;;;26.35;nan
37238;BME280;23129;49.662;8.448;2023-04-27T12:31:17;100816.63;;;26.20;nan
37238;BME280;23129;49.662;8.448;2023-04-27T12:33:53;100817.53;;;26.30;nan
37238;BME280;23129;49.662;8.448;2023-04-27T12:36:23;100806.56;;;26.12;nan
37238;BME280;23129;49.662;8.448;2023-04-27T12:38:56;100809.47;;;25.79;nan
37238;BME280;23129;49.662;8.448;2023-04-27T12:41:25;100809.47;;;25.58;nan
37238;BME280;23129;49.662;8.448;2023-04-27T12:43:54;100812.31;;;25.66;nan
37238;BME280;23129;49.662;8.448;2023-04-27T12:46:23;100813.84;;;25.80;nan
37238;BME280;23129;49.662;8.448;2023-04-27T12:48:52;100807.00;;;25.76;nan
37238;BME280;23129;49.662;8.448;2023-04-27T12:51:24;100809.78;;;25.64;nan
37238;BME280;23129;49.662;8.448;2023-04-27T12:53:55;100809.38;;;25.48;nan
37238;BME280;23129;49.662;8.448;2023-04-27T12:56:26;100816.47;;;25.49;nan
37238;BME280;23129;49.662;8.448;2023-04-27T12:58:55;100805.78;;;25.59;nan
37238;BME280;23129;49.662;8.448;2023-04-27T13:01:24;100800.78;;;25.75;nan
37238;BME280;23129;49.662;8.448;2023-04-27T13:03:54;100807.56;;;25.90;nan
37238;BME280;23129;49.662;8.448;2023-04-27T13:06:24;100799.59;;;26.10;nan
37238;BME280;23129;49.662;8.448;2023-04-27T13:08:53;100792.59;;;26.28;nan
37238;BME280;23129;49.662;8.448;2023-04-27T13:11:22;100788.69;;;26.42;nan
37238;BME280;23129;49.662;8.448;2023-04-27T13:13:51;100798.34;;;26.45;nan
37238;BME280;23129;49.662;8.448;2023-04-27T13:16:21;100792.63;;;26.38;nan
37238;BME280;23129;49.662;8.448;2023-04-27T13:18:52;100788.19;;;26.58;nan
37238;BME280;23129;49.662;8.448;2023-04-27T13:21:21;100785.97;;;26.82;nan
37238;BME280;23129;49.662;8.448;2023-04-27T13:23:51;100782.88;;;26.87;nan
37238;BME280;23129;49.662;8.448;2023-04-27T13:26:21;100783.16;;;26.94;nan
37238;BME280;23129;49.662;8.448;2023-04-27T13:28:52;100797.13;;;26.68;nan
37238;BME280;23129;49.662;8.448;2023-04-27T13:31:21;100787.69;;;26.43;nan
37238;BME280;23129;49.662;8.448;2023-04-27T13:33:50;100791.94;;;26.46;nan